createdAt,value
2022-10-28T00:00:16.674Z,0.00
2022-10-28T00:01:16.657Z,0.00
2022-10-28T00:02:16.640Z,0.00
2022-10-28T00:03:16.701Z,0.00
2022-10-28T00:04:16.704Z,0.00
2022-10-28T00:05:16.579Z,0.00
2022-10-28T00:06:16.565Z,0.00
2022-10-28T00:07:16.580Z,0.00
2022-10-28T00:08:16.536Z,0.00
2022-10-28T00:09:16.504Z,0.00
2022-10-28T00:10:16.518Z,0.00
2022-10-28T00:11:16.511Z,0.00
2022-10-28T00:12:16.492Z,0.00
2022-10-28T00:13:16.434Z,0.00
2022-10-28T00:14:16.487Z,0.00
2022-10-28T00:15:16.409Z,0.00
2022-10-28T00:16:16.487Z,0.00
2022-10-28T00:17:16.465Z,0.00
2022-10-28T00:18:16.461Z,0.00
2022-10-28T00:19:16.382Z,0.00
2022-10-28T00:20:16.444Z,0.00
2022-10-28T00:21:16.363Z,0.00
2022-10-28T00:22:16.379Z,0.00
2022-10-28T00:23:16.569Z,0.00
2022-10-28T00:24:16.331Z,0.00
2022-10-28T00:25:16.488Z,0.00
2022-10-28T00:26:16.365Z,0.00
2022-10-28T00:28:53.403Z,0.00
2022-10-28T00:32:17.331Z,0.00
2022-10-28T00:33:16.391Z,0.00
2022-10-28T00:34:17.363Z,0.00
2022-10-28T00:35:17.278Z,0.00
2022-10-28T00:36:17.285Z,0.00
2022-10-28T00:37:17.303Z,0.00
2022-10-28T00:38:17.321Z,0.00
2022-10-28T00:39:17.253Z,0.00
2022-10-28T00:40:17.269Z,0.00
2022-10-28T00:41:17.233Z,0.00
2022-10-28T00:42:17.208Z,0.00
2022-10-28T00:43:17.519Z,0.00
2022-10-28T00:44:17.177Z,0.00
2022-10-28T00:45:17.151Z,0.00
2022-10-28T00:46:17.236Z,0.00
2022-10-28T00:47:17.222Z,0.00
2022-10-28T00:48:17.192Z,0.00
2022-10-28T00:49:17.218Z,0.00
2022-10-28T00:50:17.215Z,0.00
2022-10-28T00:51:17.160Z,0.00
2022-10-28T00:52:17.181Z,0.00
2022-10-28T00:53:17.112Z,0.00
2022-10-28T00:54:17.089Z,0.00
2022-10-28T00:55:17.052Z,0.00
2022-10-28T00:56:17.137Z,0.00
2022-10-28T00:57:17.130Z,0.00
2022-10-28T00:58:17.088Z,0.00
2022-10-28T00:59:17.116Z,0.00
2022-10-28T01:00:17.305Z,0.00
2022-10-28T01:01:17.143Z,0.00
2022-10-28T01:02:17.083Z,0.00
2022-10-28T01:03:16.937Z,0.00
2022-10-28T01:04:16.976Z,0.00
2022-10-28T01:07:11.871Z,0.00
2022-10-28T01:08:11.419Z,0.00
2022-10-28T01:09:11.368Z,0.00
2022-10-28T01:10:11.320Z,0.00
2022-10-28T01:11:11.353Z,0.00
2022-10-28T01:12:11.357Z,0.00
2022-10-28T01:13:12.399Z,0.00
2022-10-28T01:14:11.378Z,0.00
2022-10-28T01:15:11.292Z,0.00
2022-10-28T01:16:11.330Z,0.00
2022-10-28T01:17:11.525Z,0.00
2022-10-28T01:18:11.295Z,0.00
2022-10-28T01:19:11.274Z,0.00
2022-10-28T01:20:11.270Z,0.00
2022-10-28T01:21:11.274Z,0.00
2022-10-28T01:22:11.231Z,0.00
2022-10-28T01:23:11.249Z,0.00
2022-10-28T01:24:11.215Z,0.00
2022-10-28T01:25:11.241Z,0.00
2022-10-28T01:26:11.185Z,0.00
2022-10-28T01:27:11.238Z,0.00
2022-10-28T01:28:11.173Z,0.00
2022-10-28T01:29:11.186Z,0.00
2022-10-28T01:30:11.122Z,0.00
2022-10-28T01:31:11.149Z,0.00
2022-10-28T01:32:11.225Z,0.00
2022-10-28T01:33:11.137Z,0.00
2022-10-28T01:34:11.116Z,0.00
2022-10-28T01:35:11.118Z,0.00
2022-10-28T01:36:11.053Z,0.00
2022-10-28T01:37:11.035Z,0.00
2022-10-28T01:40:17.319Z,0.00
2022-10-28T04:47:09.045Z,0.00
2022-10-28T04:48:10.025Z,0.00
2022-10-28T05:54:45.803Z,1.00
2022-10-28T05:55:47.870Z,1.00
2022-10-28T05:56:46.513Z,2.00
2022-10-28T05:57:46.506Z,2.00
2022-10-28T05:58:46.524Z,8.00
2022-10-28T05:59:46.463Z,8.00
2022-10-28T06:00:46.454Z,8.00
2022-10-28T06:01:46.452Z,7.00
2022-10-28T06:02:46.459Z,7.00
2022-10-28T06:03:46.475Z,12.00
2022-10-28T06:04:46.487Z,15.00
2022-10-28T06:05:46.460Z,17.00
2022-10-28T06:06:46.457Z,19.00
2022-10-28T06:07:46.365Z,21.00
2022-10-28T06:08:46.373Z,28.00
2022-10-28T06:09:46.435Z,34.00
2022-10-28T06:10:48.488Z,36.00
2022-10-28T06:11:44.853Z,39.00
2022-10-28T06:12:44.818Z,44.00
2022-10-28T06:13:44.844Z,47.00
2022-10-28T06:14:44.805Z,53.00
2022-10-28T06:15:44.740Z,55.00
2022-10-28T06:16:44.754Z,69.00
2022-10-28T06:17:44.794Z,79.00
2022-10-28T06:18:44.806Z,94.00
2022-10-28T06:19:44.738Z,118.00
2022-10-28T07:28:58.667Z,1802.00
2022-10-28T07:29:59.562Z,1794.00
2022-10-28T07:30:59.693Z,1787.00
2022-10-28T07:31:59.408Z,1833.00
2022-10-28T07:32:59.488Z,1839.00
2022-10-28T07:33:59.403Z,1863.00
2022-10-28T07:34:59.415Z,1908.00
2022-10-28T07:35:59.358Z,1947.00
2022-10-28T07:36:59.365Z,1977.00
2022-10-28T07:37:59.386Z,1998.00
2022-10-28T07:38:59.421Z,2015.00
2022-10-28T07:39:59.382Z,2105.00
2022-10-28T07:40:59.299Z,1965.00
2022-10-28T07:42:00.303Z,2082.00
2022-10-28T07:49:21.067Z,2128.00
2022-10-28T07:50:22.396Z,2161.00
2022-10-28T08:19:40.719Z,2391.00
2022-10-28T08:19:45.951Z,2387.00
2022-10-28T09:07:26.593Z,2700.00
2022-10-28T10:22:07.476Z,3510.00
2022-10-28T10:57:49.748Z,4187.00
2022-10-28T12:59:18.771Z,4100.00
2022-10-28T13:08:25.108Z,4131.00
2022-10-28T13:09:26.143Z,4265.00
2022-10-28T13:10:25.870Z,4132.00
2022-10-28T13:17:41.788Z,3557.00
2022-10-28T13:27:20.294Z,3760.00
